Time;durP1;ratioP1;P1;durP2;ratioP2;P2;SDS_P1;SDS_P2;PMS_P1;PMS_P2;Temp;Humidity;BMP_temperature;BMP_pressure;BME280_temperature;BME280_humidity;BME280_pressure;Samples;Min_cycle;Max_cycle;Signal;HPM_P1;HPM_P2
2021/08/25 00:01:02;;;;;;;12.77;3.28;;;;;;;;;;5042455;28;20036;-80
2021/08/25 00:03:27;;;;;;;8.48;2.92;;;;;;;;;;5041587;28;20025;-81
2021/08/25 00:05:53;;;;;;;8.40;3.10;;;;;;;;;;5045086;28;20056;-79
2021/08/25 00:08:20;;;;;;;6.72;3.13;;;;;;;;;;5046612;28;20033;-81
2021/08/25 00:10:45;;;;;;;8.88;3.47;;;;;;;;;;5045436;28;20022;-81
2021/08/25 00:13:11;;;;;;;8.20;3.40;;;;;;;;;;5050700;28;20037;-81
2021/08/25 00:15:38;;;;;;;6.35;3.08;;;;;;;;;;5051736;28;20025;-81
2021/08/25 00:18:04;;;;;;;15.65;3.15;;;;;;;;;;5049696;28;20017;-80
2021/08/25 00:20:30;;;;;;;7.38;3.63;;;;;;;;;;5051624;28;20044;-79
2021/08/25 00:22:55;;;;;;;7.25;3.55;;;;;;;;;;5052490;28;20037;-80
2021/08/25 00:25:22;;;;;;;6.85;3.35;;;;;;;;;;5053251;28;20047;-80
2021/08/25 00:27:47;;;;;;;8.98;3.30;;;;;;;;;;5053830;28;20025;-79
2021/08/25 00:30:12;;;;;;;6.03;3.10;;;;;;;;;;5052658;28;20039;-79
2021/08/25 00:32:38;;;;;;;9.65;3.47;;;;;;;;;;5052863;28;20024;-78
2021/08/25 00:35:03;;;;;;;8.40;3.15;;;;;;;;;;5050752;28;20026;-80
2021/08/25 00:37:29;;;;;;;6.10;3.35;;;;;;;;;;5050442;28;20025;-80
2021/08/25 00:39:54;;;;;;;7.15;3.67;;;;;;;;;;5043080;28;20053;-80
2021/08/25 00:42:20;;;;;;;7.00;3.38;;;;;;;;;;5041966;28;20021;-80
2021/08/25 00:44:46;;;;;;;6.85;3.05;;;;;;;;;;5043112;28;20029;-80
2021/08/25 00:47:13;;;;;;;12.68;5.55;;;;;;;;;;5043440;28;20100;-78
2021/08/25 00:49:39;;;;;;;8.05;3.50;;;;;;;;;;5043238;28;20109;-80
2021/08/25 00:52:04;;;;;;;10.02;4.18;;;;;;;;;;5042775;28;20083;-80
2021/08/25 00:54:30;;;;;;;10.27;3.60;;;;;;;;;;5042544;28;20025;-79
2021/08/25 00:56:57;;;;;;;10.77;3.75;;;;;;;;;;5042107;28;20099;-80
2021/08/25 00:59:22;;;;;;;7.45;3.13;;;;;;;;;;5043688;28;20057;-80
2021/08/25 01:02:12;;;;;;;10.13;3.70;;;;;;;;;;5041653;28;20037;-79
2021/08/25 01:04:43;;;;;;;8.80;3.50;;;;;;;;;;5043991;28;20033;-79
2021/08/25 01:07:10;;;;;;;7.43;3.70;;;;;;;;;;5043119;28;20026;-80
2021/08/25 01:09:39;;;;;;;7.45;3.25;;;;;;;;;;5043418;28;20032;-80
2021/08/25 01:12:07;;;;;;;8.57;3.80;;;;;;;;;;5041539;28;20032;-79
2021/08/25 01:14:32;;;;;;;8.57;3.50;;;;;;;;;;5038892;28;20500;-80
2021/08/25 01:16:58;;;;;;;10.00;3.85;;;;;;;;;;5038214;28;20029;-79
2021/08/25 01:19:26;;;;;;;10.05;3.60;;;;;;;;;;5038275;28;20041;-79
2021/08/25 01:21:51;;;;;;;6.97;3.58;;;;;;;;;;5037546;28;20040;-79
2021/08/25 01:24:18;;;;;;;6.65;3.30;;;;;;;;;;5037142;28;20030;-79
2021/08/25 01:26:49;;;;;;;6.00;3.38;;;;;;;;;;5037520;28;20029;-79
2021/08/25 01:29:21;;;;;;;7.95;3.72;;;;;;;;;;5036582;28;20059;-80
2021/08/25 01:31:47;;;;;;;7.70;3.30;;;;;;;;;;5037977;28;20501;-77
2021/08/25 01:34:12;;;;;;;6.22;3.72;;;;;;;;;;5036019;28;20038;-80
2021/08/25 01:36:37;;;;;;;8.48;3.70;;;;;;;;;;5037286;28;20049;-78
2021/08/25 01:39:03;;;;;;;6.45;3.50;;;;;;;;;;5035652;28;20056;-79
2021/08/25 01:41:29;;;;;;;7.82;3.38;;;;;;;;;;5037557;28;20490;-80
2021/08/25 01:43:59;;;;;;;6.25;3.42;;;;;;;;;;5037707;28;20028;-79
2021/08/25 01:46:27;;;;;;;7.22;3.47;;;;;;;;;;5038863;28;20036;-81
2021/08/25 01:48:55;;;;;;;6.05;3.63;;;;;;;;;;5038880;28;20029;-80
2021/08/25 01:51:23;;;;;;;7.88;3.90;;;;;;;;;;5038875;28;20048;-79
2021/08/25 01:53:48;;;;;;;8.00;3.45;;;;;;;;;;5039266;28;20021;-80
2021/08/25 01:56:13;;;;;;;7.00;3.70;;;;;;;;;;5040263;28;20034;-79
2021/08/25 01:58:41;;;;;;;7.30;3.70;;;;;;;;;;5039815;28;20496;-80
2021/08/25 02:01:07;;;;;;;9.68;4.68;;;;;;;;;;5039782;28;20029;-80
2021/08/25 02:03:33;;;;;;;7.95;3.97;;;;;;;;;;5041672;28;20037;-80
2021/08/25 02:05:58;;;;;;;8.23;4.03;;;;;;;;;;5042539;28;20091;-81
2021/08/25 02:08:23;;;;;;;8.70;4.25;;;;;;;;;;5046022;28;20072;-80
2021/08/25 02:10:48;;;;;;;10.20;4.63;;;;;;;;;;5045245;28;20089;-79
2021/08/25 02:13:14;;;;;;;7.97;4.40;;;;;;;;;;5044544;28;20029;-79
2021/08/25 02:15:39;;;;;;;11.52;4.25;;;;;;;;;;5044560;28;20041;-80
2021/08/25 02:18:04;;;;;;;9.10;4.68;;;;;;;;;;5042566;28;20513;-80
2021/08/25 02:20:30;;;;;;;13.70;4.50;;;;;;;;;;5042222;28;20021;-81
2021/08/25 02:22:55;;;;;;;9.20;4.30;;;;;;;;;;5042698;28;20025;-79
2021/08/25 02:25:20;;;;;;;10.88;4.70;;;;;;;;;;5041027;28;20112;-80
2021/08/25 02:27:46;;;;;;;11.20;4.65;;;;;;;;;;5041857;28;20044;-80
2021/08/25 02:30:11;;;;;;;7.95;4.18;;;;;;;;;;5042269;28;20033;-80
2021/08/25 02:32:37;;;;;;;12.00;4.63;;;;;;;;;;5042164;28;20018;-80
2021/08/25 02:35:02;;;;;;;8.55;4.90;;;;;;;;;;5042177;28;20389;-79
2021/08/25 02:37:27;;;;;;;8.43;4.28;;;;;;;;;;5042680;28;20025;-80
2021/08/25 02:39:53;;;;;;;9.90;4.72;;;;;;;;;;5042461;28;20025;-81
2021/08/25 02:42:18;;;;;;;16.58;5.13;;;;;;;;;;5041490;28;20056;-79
2021/08/25 02:44:43;;;;;;;11.30;4.60;;;;;;;;;;5041347;28;20088;-78
2021/08/25 02:47:11;;;;;;;13.50;5.18;;;;;;;;;;5041290;28;20025;-79
2021/08/25 02:49:37;;;;;;;9.90;5.07;;;;;;;;;;5040526;28;20033;-79
2021/08/25 02:52:02;;;;;;;10.43;4.90;;;;;;;;;;5039210;28;20025;-79
2021/08/25 02:54:27;;;;;;;7.97;4.50;;;;;;;;;;5039048;28;20029;-80
2021/08/25 02:56:53;;;;;;;12.73;6.72;;;;;;;;;;5038804;28;20041;-80
2021/08/25 02:59:18;;;;;;;8.00;4.30;;;;;;;;;;5039028;28;20018;-78
2021/08/25 03:01:43;;;;;;;13.20;4.95;;;;;;;;;;5038643;28;20057;-78
2021/08/25 03:04:08;;;;;;;8.73;4.55;;;;;;;;;;5038811;28;20033;-80
2021/08/25 03:06:34;;;;;;;9.38;4.93;;;;;;;;;;5038018;28;20067;-79
2021/08/25 03:08:59;;;;;;;16.65;5.10;;;;;;;;;;5039920;28;20056;-80
2021/08/25 03:11:24;;;;;;;10.88;4.93;;;;;;;;;;5038129;28;20025;-78
2021/08/25 03:13:50;;;;;;;9.05;4.80;;;;;;;;;;5038687;28;20470;-79
2021/08/25 03:16:15;;;;;;;8.23;3.83;;;;;;;;;;5039369;28;20091;-79
2021/08/25 03:18:40;;;;;;;10.63;4.22;;;;;;;;;;5038328;28;20056;-78
2021/08/25 03:21:06;;;;;;;12.32;5.05;;;;;;;;;;5039283;28;20033;-79
2021/08/25 03:23:31;;;;;;;11.77;4.75;;;;;;;;;;5039425;28;20105;-78
2021/08/25 03:25:56;;;;;;;7.32;4.78;;;;;;;;;;5038768;28;20025;-79
2021/08/25 03:28:22;;;;;;;8.63;5.22;;;;;;;;;;5039152;28;20106;-77
2021/08/25 03:30:47;;;;;;;9.35;5.32;;;;;;;;;;5038916;28;20366;-79
2021/08/25 03:33:13;;;;;;;10.13;5.57;;;;;;;;;;5038252;28;20049;-78
2021/08/25 03:35:38;;;;;;;13.75;6.03;;;;;;;;;;5039111;28;20496;-80
2021/08/25 03:38:03;;;;;;;17.02;5.47;;;;;;;;;;5039002;28;20498;-79
2021/08/25 03:40:29;;;;;;;8.95;5.30;;;;;;;;;;5038347;28;20087;-78
2021/08/25 03:42:54;;;;;;;10.98;5.82;;;;;;;;;;5038161;28;20026;-80
2021/08/25 03:45:20;;;;;;;10.52;6.10;;;;;;;;;;5038877;28;20029;-79
2021/08/25 03:47:45;;;;;;;10.15;5.68;;;;;;;;;;5037316;28;20028;-80
2021/08/25 03:50:10;;;;;;;16.02;5.82;;;;;;;;;;5036937;28;20389;-79
2021/08/25 03:52:36;;;;;;;10.55;5.75;;;;;;;;;;5039049;28;20458;-78
2021/08/25 03:55:01;;;;;;;9.20;5.15;;;;;;;;;;5038198;28;20021;-79
2021/08/25 03:57:27;;;;;;;10.48;5.72;;;;;;;;;;5038020;28;20120;-79
2021/08/25 03:59:52;;;;;;;14.35;6.18;;;;;;;;;;5037692;28;20025;-79
2021/08/25 04:02:17;;;;;;;12.07;5.82;;;;;;;;;;5038801;28;20104;-80
2021/08/25 04:04:43;;;;;;;12.02;6.20;;;;;;;;;;5037865;28;20495;-78
2021/08/25 04:07:08;;;;;;;10.95;5.60;;;;;;;;;;5037455;28;20028;-79
2021/08/25 04:09:33;;;;;;;17.23;6.50;;;;;;;;;;5037123;28;20025;-79
2021/08/25 04:11:59;;;;;;;15.20;7.13;;;;;;;;;;5037686;28;20381;-78
2021/08/25 04:14:24;;;;;;;13.45;6.28;;;;;;;;;;5037977;28;20497;-79
2021/08/25 04:16:49;;;;;;;21.45;6.85;;;;;;;;;;5038270;28;20033;-79
2021/08/25 04:19:15;;;;;;;11.32;6.60;;;;;;;;;;5038243;28;20028;-80
2021/08/25 04:21:40;;;;;;;9.48;6.13;;;;;;;;;;5038261;28;20021;-79
2021/08/25 04:24:05;;;;;;;17.30;6.90;;;;;;;;;;5039210;28;20561;-79
2021/08/25 04:26:30;;;;;;;15.60;7.35;;;;;;;;;;5041352;28;20074;-79
2021/08/25 04:28:56;;;;;;;15.10;6.95;;;;;;;;;;5038710;28;20494;-80
2021/08/25 04:31:21;;;;;;;17.70;7.47;;;;;;;;;;5039017;28;20482;-80
2021/08/25 04:33:46;;;;;;;13.38;7.57;;;;;;;;;;5039980;28;20029;-82
2021/08/25 04:36:12;;;;;;;18.77;8.15;;;;;;;;;;5040101;28;20041;-81
2021/08/25 04:38:37;;;;;;;18.73;8.27;;;;;;;;;;5039484;28;20034;-80
2021/08/25 04:41:02;;;;;;;15.70;7.53;;;;;;;;;;5039920;28;20022;-81
2021/08/25 04:43:28;;;;;;;14.52;8.70;;;;;;;;;;5039898;28;20065;-80
2021/08/25 04:45:54;;;;;;;17.67;8.43;;;;;;;;;;5038092;28;20092;-78
2021/08/25 04:48:20;;;;;;;18.17;8.68;;;;;;;;;;5036218;28;20076;-81
2021/08/25 04:50:46;;;;;;;17.90;9.02;;;;;;;;;;5036768;28;20033;-78
2021/08/25 04:53:11;;;;;;;13.68;7.88;;;;;;;;;;5036194;28;20030;-78
2021/08/25 04:55:37;;;;;;;17.08;8.23;;;;;;;;;;5036331;28;20021;-78
2021/08/25 04:58:05;;;;;;;13.20;7.68;;;;;;;;;;5036088;28;20478;-78
2021/08/25 05:00:30;;;;;;;14.27;7.70;;;;;;;;;;5036786;28;20026;-79
2021/08/25 05:02:55;;;;;;;15.25;7.43;;;;;;;;;;5037315;28;20056;-78
2021/08/25 05:05:21;;;;;;;14.63;7.57;;;;;;;;;;5037245;28;20037;-79
2021/08/25 05:07:46;;;;;;;29.55;9.90;;;;;;;;;;5038672;28;20032;-79
2021/08/25 05:10:11;;;;;;;16.67;8.07;;;;;;;;;;5038759;28;20490;-79
2021/08/25 05:12:36;;;;;;;14.43;8.15;;;;;;;;;;5038899;28;20025;-78
2021/08/25 05:15:04;;;;;;;15.75;8.40;;;;;;;;;;5038830;28;20040;-79
2021/08/25 05:17:29;;;;;;;25.50;8.73;;;;;;;;;;5038608;28;20148;-79
2021/08/25 05:19:59;;;;;;;15.23;8.15;;;;;;;;;;5038706;28;20032;-78
2021/08/25 05:22:24;;;;;;;20.30;8.65;;;;;;;;;;5039103;28;20370;-79
2021/08/25 05:24:49;;;;;;;14.45;8.23;;;;;;;;;;5038301;28;20148;-79
2021/08/25 05:27:15;;;;;;;22.67;9.00;;;;;;;;;;5025834;28;20021;-79
2021/08/25 05:29:40;;;;;;;17.10;8.63;;;;;;;;;;5018764;28;20513;-79
2021/08/25 05:32:06;;;;;;;16.40;8.23;;;;;;;;;;5020308;28;20128;-79
2021/08/25 05:34:32;;;;;;;18.35;9.73;;;;;;;;;;5019910;28;20052;-79
2021/08/25 05:36:57;;;;;;;17.77;9.57;;;;;;;;;;5019897;28;20492;-78
2021/08/25 05:39:22;;;;;;;18.50;9.73;;;;;;;;;;5020011;28;20093;-79
2021/08/25 05:41:47;;;;;;;18.67;10.20;;;;;;;;;;5017554;28;20026;-79
2021/08/25 05:44:13;;;;;;;15.40;9.25;;;;;;;;;;5018654;28;20022;-80
2021/08/25 05:46:38;;;;;;;20.45;9.60;;;;;;;;;;5019029;28;20058;-80
2021/08/25 05:49:03;;;;;;;15.57;9.18;;;;;;;;;;5018812;28;20026;-78
2021/08/25 05:51:29;;;;;;;20.52;10.55;;;;;;;;;;5019292;28;20034;-78
2021/08/25 05:53:54;;;;;;;20.17;10.65;;;;;;;;;;5018132;28;20030;-78
2021/08/25 05:56:19;;;;;;;20.75;10.88;;;;;;;;;;5019302;28;20018;-79
2021/08/25 05:58:45;;;;;;;16.88;9.63;;;;;;;;;;5019136;28;20018;-79
2021/08/25 06:01:15;;;;;;;19.98;10.75;;;;;;;;;;5018643;28;20030;-79
2021/08/25 06:03:40;;;;;;;19.35;10.80;;;;;;;;;;5030497;28;20022;-79
2021/08/25 06:06:06;;;;;;;24.33;10.93;;;;;;;;;;5038736;28;20462;-79
2021/08/25 06:08:31;;;;;;;19.05;10.52;;;;;;;;;;5038411;28;20021;-78
2021/08/25 06:10:57;;;;;;;16.20;9.95;;;;;;;;;;5038418;28;20033;-80
2021/08/25 06:13:22;;;;;;;17.70;9.93;;;;;;;;;;5037600;28;20026;-80
2021/08/25 06:15:47;;;;;;;25.50;9.35;;;;;;;;;;5037981;28;20021;-80
2021/08/25 06:18:12;;;;;;;20.33;10.77;;;;;;;;;;5037811;28;20023;-81
2021/08/25 06:20:38;;;;;;;17.08;10.15;;;;;;;;;;5038235;28;20025;-79
2021/08/25 06:23:03;;;;;;;19.13;9.98;;;;;;;;;;5038305;28;20508;-80
2021/08/25 06:25:28;;;;;;;23.08;10.43;;;;;;;;;;5039011;28;20471;-80
2021/08/25 06:27:54;;;;;;;22.08;11.20;;;;;;;;;;5038856;28;20053;-80
2021/08/25 06:30:20;;;;;;;19.83;10.30;;;;;;;;;;5038084;28;20033;-78
2021/08/25 06:32:45;;;;;;;17.55;10.95;;;;;;;;;;5038074;28;20045;-80
2021/08/25 06:35:10;;;;;;;20.83;10.60;;;;;;;;;;5036526;28;20398;-79
2021/08/25 06:37:36;;;;;;;16.58;10.35;;;;;;;;;;5037967;28;20024;-79
2021/08/25 06:40:03;;;;;;;17.17;11.45;;;;;;;;;;5037968;28;20398;-79
2021/08/25 06:42:28;;;;;;;24.80;11.48;;;;;;;;;;5037755;28;20029;-78
2021/08/25 06:44:53;;;;;;;16.35;10.80;;;;;;;;;;5037475;28;20026;-78
2021/08/25 06:47:19;;;;;;;19.52;10.35;;;;;;;;;;5038083;28;20021;-78
2021/08/25 06:49:44;;;;;;;20.52;10.57;;;;;;;;;;5037597;28;20025;-80
2021/08/25 06:52:09;;;;;;;18.63;9.50;;;;;;;;;;5037963;28;20018;-79
2021/08/25 06:54:35;;;;;;;20.45;10.20;;;;;;;;;;5041485;28;20498;-78
2021/08/25 06:57:00;;;;;;;18.35;8.70;;;;;;;;;;5040888;28;20496;-80
2021/08/25 06:59:25;;;;;;;17.83;8.98;;;;;;;;;;5041611;28;20398;-79
2021/08/25 07:01:51;;;;;;;24.65;9.77;;;;;;;;;;5041107;28;20057;-79
2021/08/25 07:04:18;;;;;;;18.85;9.57;;;;;;;;;;5022995;28;20026;-80
2021/08/25 07:06:43;;;;;;;26.30;9.73;;;;;;;;;;5021326;28;20101;-80
2021/08/25 07:09:09;;;;;;;15.25;8.70;;;;;;;;;;5021463;28;20064;-79
2021/08/25 07:11:35;;;;;;;26.02;9.10;;;;;;;;;;5021689;28;20105;-80
2021/08/25 07:14:00;;;;;;;21.48;9.60;;;;;;;;;;5020823;28;20466;-79
2021/08/25 07:16:26;;;;;;;21.23;9.30;;;;;;;;;;5020597;28;20033;-80
2021/08/25 07:18:51;;;;;;;17.38;8.32;;;;;;;;;;5021296;28;20474;-79
2021/08/25 07:21:16;;;;;;;16.85;8.70;;;;;;;;;;5019929;28;20029;-80
2021/08/25 07:23:42;;;;;;;18.52;8.55;;;;;;;;;;5036619;28;20029;-80
2021/08/25 07:26:07;;;;;;;14.77;8.43;;;;;;;;;;5021776;28;20053;-79
2021/08/25 07:28:32;;;;;;;15.88;7.75;;;;;;;;;;5021833;28;20546;-80
2021/08/25 07:30:58;;;;;;;16.55;7.38;;;;;;;;;;5028359;28;20033;-80
2021/08/25 07:33:23;;;;;;;15.45;7.53;;;;;;;;;;5025963;28;20088;-79
2021/08/25 07:35:49;;;;;;;13.05;7.50;;;;;;;;;;5020213;28;20075;-78
2021/08/25 07:38:15;;;;;;;14.75;8.00;;;;;;;;;;5021110;28;20025;-80
2021/08/25 07:40:41;;;;;;;15.07;7.93;;;;;;;;;;5020949;28;20029;-80
2021/08/25 07:43:06;;;;;;;13.85;7.32;;;;;;;;;;5021216;28;20475;-79
2021/08/25 07:45:34;;;;;;;13.90;7.05;;;;;;;;;;5020325;28;20032;-79
2021/08/25 07:47:59;;;;;;;10.93;6.78;;;;;;;;;;5020808;28;20100;-80
2021/08/25 07:50:25;;;;;;;12.88;6.32;;;;;;;;;;5020437;28;20045;-80
2021/08/25 07:52:50;;;;;;;13.18;6.03;;;;;;;;;;5020770;28;20029;-80
2021/08/25 07:55:15;;;;;;;10.48;5.68;;;;;;;;;;5020551;28;20367;-80
2021/08/25 07:57:41;;;;;;;11.02;6.35;;;;;;;;;;5020505;28;20056;-79
2021/08/25 08:00:06;;;;;;;12.52;6.07;;;;;;;;;;5020823;28;20352;-78
2021/08/25 08:02:35;;;;;;;10.63;6.20;;;;;;;;;;5020614;28;20018;-78
2021/08/25 08:05:01;;;;;;;13.20;6.38;;;;;;;;;;5036580;28;20029;-79
2021/08/25 08:07:26;;;;;;;10.65;5.85;;;;;;;;;;5039588;28;20390;-79
2021/08/25 08:09:51;;;;;;;8.18;4.93;;;;;;;;;;5039710;28;20664;-79
2021/08/25 08:12:17;;;;;;;11.35;5.40;;;;;;;;;;5039883;28;20072;-78
2021/08/25 08:14:42;;;;;;;7.00;4.47;;;;;;;;;;5040830;28;20033;-79
2021/08/25 08:17:08;;;;;;;9.32;5.07;;;;;;;;;;5040649;28;20025;-80
2021/08/25 08:19:33;;;;;;;7.47;3.58;;;;;;;;;;5039738;28;20382;-79
2021/08/25 08:22:00;;;;;;;9.77;3.65;;;;;;;;;;5040429;28;20022;-79
2021/08/25 08:24:26;;;;;;;7.03;3.50;;;;;;;;;;5040078;28;20120;-80
2021/08/25 08:26:51;;;;;;;8.63;4.00;;;;;;;;;;5039790;28;20029;-79
2021/08/25 08:29:16;;;;;;;7.13;3.42;;;;;;;;;;5040672;28;20021;-79
2021/08/25 08:31:42;;;;;;;9.95;3.13;;;;;;;;;;5039008;28;20022;-79
2021/08/25 08:34:07;;;;;;;7.55;3.55;;;;;;;;;;5038270;28;20075;-79
2021/08/25 08:36:33;;;;;;;7.45;4.07;;;;;;;;;;5039428;28;20029;-79
2021/08/25 08:38:58;;;;;;;7.85;3.63;;;;;;;;;;5039006;28;20049;-79
2021/08/25 08:41:23;;;;;;;10.35;4.00;;;;;;;;;;5038252;28;20029;-78
2021/08/25 08:43:51;;;;;;;7.10;3.45;;;;;;;;;;5036163;28;20021;-79
2021/08/25 08:46:19;;;;;;;6.28;3.10;;;;;;;;;;5037455;28;20482;-79
2021/08/25 08:48:46;;;;;;;7.85;3.75;;;;;;;;;;5035424;28;20029;-78
2021/08/25 08:51:16;;;;;;;10.10;4.18;;;;;;;;;;5035434;28;20025;-78
2021/08/25 08:53:42;;;;;;;5.22;2.90;;;;;;;;;;5034681;28;20367;-78
2021/08/25 08:56:07;;;;;;;19.02;3.67;;;;;;;;;;5035005;28;20033;-79
2021/08/25 08:58:33;;;;;;;10.52;3.00;;;;;;;;;;5037413;28;20037;-79
2021/08/25 09:00:59;;;;;;;10.98;3.38;;;;;;;;;;5036350;28;20064;-77
2021/08/25 09:03:28;;;;;;;6.97;2.95;;;;;;;;;;5035354;28;20036;-79
2021/08/25 09:06:00;;;;;;;9.20;3.42;;;;;;;;;;5033640;28;20021;-78
2021/08/25 09:08:28;;;;;;;7.88;3.45;;;;;;;;;;5035197;28;20029;-78
2021/08/25 09:11:08;;;;;;;8.95;3.20;;;;;;;;;;5034465;28;20033;-77
2021/08/25 09:13:41;;;;;;;7.57;2.95;;;;;;;;;;5034488;28;20017;-78
2021/08/25 09:16:07;;;;;;;;;;;;;;;;;;5034128;28;20520;-78
2021/08/25 09:18:33;;;;;;;7.30;2.92;;;;;;;;;;5035183;28;19908;-78
2021/08/25 09:20:59;;;;;;;5.60;3.10;;;;;;;;;;5036576;28;20049;-77
2021/08/25 09:23:27;;;;;;;7.43;3.63;;;;;;;;;;5034886;28;20117;-78
2021/08/25 09:25:58;;;;;;;5.47;3.08;;;;;;;;;;5033654;28;20367;-77
2021/08/25 09:28:32;;;;;;;4.93;2.47;;;;;;;;;;5033554;28;20033;-77
2021/08/25 09:30:57;;;;;;;6.07;2.95;;;;;;;;;;5035106;28;20029;-79
2021/08/25 09:33:26;;;;;;;6.78;2.85;;;;;;;;;;5036528;28;20092;-78
2021/08/25 09:35:54;;;;;;;7.65;2.90;;;;;;;;;;5040628;28;20026;-77
2021/08/25 09:38:21;;;;;;;9.80;2.83;;;;;;;;;;5036102;28;20045;-77
2021/08/25 09:40:49;;;;;;;7.53;3.28;;;;;;;;;;5039193;28;20505;-78
2021/08/25 09:43:35;;;;;;;13.70;4.65;;;;;;;;;;5040696;28;20053;-78
2021/08/25 09:46:21;;;;;;;6.82;3.00;;;;;;;;;;5038495;28;20025;-77
2021/08/25 09:48:48;;;;;;;7.90;3.10;;;;;;;;;;5037994;28;20052;-78
2021/08/25 09:51:16;;;;;;;5.03;2.65;;;;;;;;;;5038404;28;20032;-78
2021/08/25 09:53:45;;;;;;;11.23;2.97;;;;;;;;;;5035863;28;20080;-78
2021/08/25 09:56:27;;;;;;;7.82;2.70;;;;;;;;;;5033859;28;20025;-77
2021/08/25 09:58:54;;;;;;;9.73;3.20;;;;;;;;;;5033531;28;20029;-77
2021/08/25 10:01:21;;;;;;;7.63;3.05;;;;;;;;;;5032384;28;20029;-77
2021/08/25 10:03:46;;;;;;;6.40;3.28;;;;;;;;;;5019677;28;20030;-77
2021/08/25 10:06:17;;;;;;;6.32;3.10;;;;;;;;;;5015037;28;20029;-80
2021/08/25 10:08:43;;;;;;;7.38;3.95;;;;;;;;;;5018532;28;20026;-80
2021/08/25 10:11:09;;;;;;;6.93;3.65;;;;;;;;;;5018468;28;20383;-80
2021/08/25 10:13:35;;;;;;;12.77;6.13;;;;;;;;;;5018475;28;20109;-80
2021/08/25 10:16:00;;;;;;;7.82;3.67;;;;;;;;;;5017315;28;20487;-79
2021/08/25 10:18:40;;;;;;;7.60;3.33;;;;;;;;;;5018861;28;20030;-81
2021/08/25 10:21:36;;;;;;;7.35;3.08;;;;;;;;;;5018871;28;20014;-81
2021/08/25 10:24:05;;;;;;;8.57;4.05;;;;;;;;;;5018865;28;20563;-80
2021/08/25 10:26:32;;;;;;;5.95;3.63;;;;;;;;;;5019216;28;20033;-81
2021/08/25 10:29:03;;;;;;;7.65;4.03;;;;;;;;;;5022174;28;20026;-81
2021/08/25 10:31:53;;;;;;;7.53;3.60;;;;;;;;;;5022012;28;20029;-80
2021/08/25 10:34:21;;;;;;;10.65;4.50;;;;;;;;;;5021585;28;20017;-81
2021/08/25 10:36:51;;;;;;;6.97;3.40;;;;;;;;;;5025965;28;20041;-81
2021/08/25 10:39:35;;;;;;;11.55;3.88;;;;;;;;;;5029652;28;20101;-79
2021/08/25 10:42:02;;;;;;;8.05;3.70;;;;;;;;;;5022115;28;20025;-80
2021/08/25 10:44:49;;;;;;;9.32;3.85;;;;;;;;;;5021511;28;20445;-80
2021/08/25 10:47:16;;;;;;;8.30;3.92;;;;;;;;;;5021701;28;20026;-81
2021/08/25 10:49:46;;;;;;;9.40;3.47;;;;;;;;;;5022084;28;20043;-80
2021/08/25 10:52:15;;;;;;;5.53;3.20;;;;;;;;;;5021372;28;20422;-81
2021/08/25 10:54:40;;;;;;;7.95;4.10;;;;;;;;;;5022084;28;20022;-79
2021/08/25 10:57:08;;;;;;;7.75;3.63;;;;;;;;;;5020726;28;20087;-81
2021/08/25 10:59:33;;;;;;;10.52;4.90;;;;;;;;;;5021827;28;20112;-80
2021/08/25 11:01:59;;;;;;;13.15;4.57;;;;;;;;;;5021286;28;20461;-81
2021/08/25 11:04:25;;;;;;;9.65;4.80;;;;;;;;;;5039012;28;20070;-80
2021/08/25 11:07:01;;;;;;;9.30;4.47;;;;;;;;;;5042571;28;20033;-81
2021/08/25 11:09:31;;;;;;;10.07;4.70;;;;;;;;;;5042260;28;20070;-82
2021/08/25 11:11:58;;;;;;;6.78;4.07;;;;;;;;;;5041838;28;20560;-81
2021/08/25 11:14:30;;;;;;;10.25;4.28;;;;;;;;;;5040860;28;20032;-81
2021/08/25 11:17:02;;;;;;;11.82;4.80;;;;;;;;;;5041380;28;20025;-80
2021/08/25 11:19:30;;;;;;;9.75;4.18;;;;;;;;;;5041497;28;20029;-80
2021/08/25 11:21:57;;;;;;;13.20;4.45;;;;;;;;;;5041732;28;20022;-81
2021/08/25 11:24:23;;;;;;;10.57;3.80;;;;;;;;;;5041620;28;20432;-81
2021/08/25 11:26:49;;;;;;;8.93;4.05;;;;;;;;;;5040204;28;20025;-82
2021/08/25 11:29:20;;;;;;;8.88;4.32;;;;;;;;;;5041648;28;20029;-81
2021/08/25 11:31:46;;;;;;;7.97;3.45;;;;;;;;;;5040158;28;20029;-80
2021/08/25 11:34:13;;;;;;;8.50;3.80;;;;;;;;;;5041210;28;20025;-81
2021/08/25 11:37:11;;;;;;;8.52;3.97;;;;;;;;;;5041157;28;20035;-80
2021/08/25 11:39:36;;;;;;;7.97;4.07;;;;;;;;;;5017997;28;20057;-79
2021/08/25 11:42:02;;;;;;;8.10;3.60;;;;;;;;;;5039418;28;20079;-81
2021/08/25 11:44:42;;;;;;;8.73;4.25;;;;;;;;;;5039835;28;20072;-82
2021/08/25 11:47:09;;;;;;;6.50;3.50;;;;;;;;;;5040996;28;20056;-83
2021/08/25 11:49:35;;;;;;;9.98;3.92;;;;;;;;;;5040619;28;20030;-82
2021/08/25 11:52:00;;;;;;;8.20;3.53;;;;;;;;;;5041488;28;20029;-80
2021/08/25 11:54:26;;;;;;;11.80;3.75;;;;;;;;;;5041039;28;20059;-80
2021/08/25 11:56:51;;;;;;;6.90;4.28;;;;;;;;;;5038881;28;20033;-80
2021/08/25 11:59:17;;;;;;;7.30;4.10;;;;;;;;;;5040829;28;20487;-80
2021/08/25 12:01:42;;;;;;;7.80;4.38;;;;;;;;;;5041273;28;20021;-81
2021/08/25 12:04:07;;;;;;;7.45;4.75;;;;;;;;;;5038523;28;20033;-78
2021/08/25 12:06:44;;;;;;;8.00;4.68;;;;;;;;;;5035395;28;20033;-79
2021/08/25 12:09:09;;;;;;;11.77;5.00;;;;;;;;;;5041047;28;20037;-77
2021/08/25 12:11:53;;;;;;;9.30;4.63;;;;;;;;;;5043714;28;20025;-77
2021/08/25 12:14:18;;;;;;;5.75;3.83;;;;;;;;;;5039399;28;20446;-77
2021/08/25 12:17:00;;;;;;;10.35;4.45;;;;;;;;;;5040748;28;20084;-77
2021/08/25 12:19:26;;;;;;;8.75;4.47;;;;;;;;;;5036486;28;20087;-77
2021/08/25 12:21:51;;;;;;;7.72;3.95;;;;;;;;;;5037015;28;20026;-77
2021/08/25 12:24:18;;;;;;;5.75;3.45;;;;;;;;;;5037873;28;20163;-78
2021/08/25 12:26:54;;;;;;;6.65;4.10;;;;;;;;;;5035682;28;20021;-78
2021/08/25 12:29:30;;;;;;;12.23;4.38;;;;;;;;;;5034476;28;20041;-78
2021/08/25 12:31:57;;;;;;;23.40;4.13;;;;;;;;;;5035478;28;20041;-78
2021/08/25 12:34:23;;;;;;;8.45;3.95;;;;;;;;;;5034649;28;20033;-78
2021/08/25 12:36:52;;;;;;;8.10;4.03;;;;;;;;;;5034692;28;20050;-78
2021/08/25 12:39:24;;;;;;;7.68;3.70;;;;;;;;;;5035667;28;20358;-77
2021/08/25 12:41:51;;;;;;;7.63;3.08;;;;;;;;;;5034864;28;20064;-78
2021/08/25 12:44:17;;;;;;;9.65;4.13;;;;;;;;;;5034663;28;20363;-78
2021/08/25 12:46:48;;;;;;;7.78;4.15;;;;;;;;;;5035157;28;20049;-77
2021/08/25 12:49:13;;;;;;;11.38;4.22;;;;;;;;;;5034573;28;20437;-77
2021/08/25 12:51:38;;;;;;;8.30;4.10;;;;;;;;;;5033565;28;20022;-78
2021/08/25 12:54:04;;;;;;;9.10;3.85;;;;;;;;;;5034644;28;20030;-78
2021/08/25 12:56:29;;;;;;;11.38;4.43;;;;;;;;;;5034320;28;20032;-77
2021/08/25 12:58:54;;;;;;;6.20;3.67;;;;;;;;;;5034377;28;20032;-77
2021/08/25 13:01:20;;;;;;;6.82;4.00;;;;;;;;;;5035536;28;20029;-77
2021/08/25 13:03:45;;;;;;;10.02;4.40;;;;;;;;;;5022445;28;20057;-77
2021/08/25 13:06:10;;;;;;;8.27;4.32;;;;;;;;;;5014225;28;20117;-78
2021/08/25 13:08:35;;;;;;;11.13;4.85;;;;;;;;;;5014505;28;20068;-77
2021/08/25 13:11:01;;;;;;;9.00;4.22;;;;;;;;;;5015011;28;20097;-77
2021/08/25 13:13:26;;;;;;;8.20;3.35;;;;;;;;;;5016741;28;20383;-78
2021/08/25 13:15:51;;;;;;;7.75;3.45;;;;;;;;;;5016249;28;20045;-78
2021/08/25 13:18:17;;;;;;;7.75;3.42;;;;;;;;;;5015285;28;20030;-78
2021/08/25 13:20:42;;;;;;;8.02;3.58;;;;;;;;;;5016761;28;20026;-80
2021/08/25 13:23:07;;;;;;;8.30;3.08;;;;;;;;;;5015795;28;20034;-78
2021/08/25 13:25:32;;;;;;;4.57;3.28;;;;;;;;;;5015761;28;20478;-78
2021/08/25 13:27:58;;;;;;;6.97;3.78;;;;;;;;;;5016046;28;20034;-79
2021/08/25 13:30:23;;;;;;;6.63;3.58;;;;;;;;;;5031490;28;20445;-78
2021/08/25 13:32:48;;;;;;;4.53;2.72;;;;;;;;;;5032056;28;20433;-78
2021/08/25 13:35:14;;;;;;;9.20;2.95;;;;;;;;;;5016984;28;20029;-78
2021/08/25 13:37:39;;;;;;;9.45;3.20;;;;;;;;;;5017411;28;20030;-78
2021/08/25 13:40:05;;;;;;;5.28;2.58;;;;;;;;;;5016298;28;20022;-78
2021/08/25 13:42:31;;;;;;;8.55;3.22;;;;;;;;;;5016247;28;20034;-78
2021/08/25 13:44:56;;;;;;;6.20;3.17;;;;;;;;;;5015179;28;20036;-78
2021/08/25 13:47:22;;;;;;;9.32;3.50;;;;;;;;;;5015328;28;20026;-78
2021/08/25 13:49:47;;;;;;;5.78;3.83;;;;;;;;;;5016182;28;20033;-77
2021/08/25 13:52:12;;;;;;;4.45;3.00;;;;;;;;;;5014152;28;20036;-78
2021/08/25 13:54:38;;;;;;;4.30;2.80;;;;;;;;;;5015912;28;20058;-79
2021/08/25 13:57:03;;;;;;;6.88;3.33;;;;;;;;;;5015015;28;20053;-78
2021/08/25 13:59:28;;;;;;;9.25;3.10;;;;;;;;;;5016190;28;20433;-79
2021/08/25 14:01:55;;;;;;;8.23;3.08;;;;;;;;;;5017277;28;20053;-80
2021/08/25 14:04:21;;;;;;;6.82;3.08;;;;;;;;;;5018702;28;20129;-78
2021/08/25 14:06:46;;;;;;;5.32;2.92;;;;;;;;;;5018023;28;20037;-77
2021/08/25 14:09:11;;;;;;;5.32;2.72;;;;;;;;;;5017344;28;20044;-76
2021/08/25 14:11:36;;;;;;;8.43;2.72;;;;;;;;;;5017590;28;20037;-77
2021/08/25 14:14:03;;;;;;;2.92;2.17;;;;;;;;;;5017356;28;20024;-76
2021/08/25 14:16:28;;;;;;;9.82;3.20;;;;;;;;;;5017536;28;20450;-76
2021/08/25 14:18:54;;;;;;;11.18;2.63;;;;;;;;;;5018495;28;20072;-80
2021/08/25 14:21:19;;;;;;;8.05;2.40;;;;;;;;;;5024310;28;20042;-79
2021/08/25 14:23:44;;;;;;;5.15;2.45;;;;;;;;;;5024582;28;20062;-80
2021/08/25 14:26:12;;;;;;;5.25;2.67;;;;;;;;;;5022358;28;20030;-80
2021/08/25 14:28:37;;;;;;;4.10;1.83;;;;;;;;;;5023327;28;20034;-79
2021/08/25 14:31:03;;;;;;;4.85;2.38;;;;;;;;;;5023324;28;20032;-80
2021/08/25 14:33:28;;;;;;;4.63;2.58;;;;;;;;;;5022827;28;20057;-78